sensor_id;sensor_type;location;lat;lon;timestamp;temperature;humidity
69382;DHT22;56560;50.692;12.844;2023-04-28T00:01:16;6.10;60.50
69382;DHT22;56560;50.692;12.844;2023-04-28T00:03:42;6.20;60.20
69382;DHT22;56560;50.692;12.844;2023-04-28T00:06:08;6.10;60.20
69382;DHT22;56560;50.692;12.844;2023-04-28T00:08:33;6.10;61.80
69382;DHT22;56560;50.692;12.844;2023-04-28T00:10:59;6.00;61.00
69382;DHT22;56560;50.692;12.844;2023-04-28T00:13:25;5.90;61.50
69382;DHT22;56560;50.692;12.844;2023-04-28T00:15:52;5.90;62.00
69382;DHT22;56560;50.692;12.844;2023-04-28T00:18:19;5.80;63.70
69382;DHT22;56560;50.692;12.844;2023-04-28T00:20:44;5.80;63.90
69382;DHT22;56560;50.692;12.844;2023-04-28T00:23:10;5.70;63.30
69382;DHT22;56560;50.692;12.844;2023-04-28T00:25:36;5.70;63.60
69382;DHT22;56560;50.692;12.844;2023-04-28T00:28:01;5.70;64.30
69382;DHT22;56560;50.692;12.844;2023-04-28T00:30:29;5.70;64.60
69382;DHT22;56560;50.692;12.844;2023-04-28T00:32:55;5.60;64.90
69382;DHT22;56560;50.692;12.844;2023-04-28T00:35:21;5.60;64.80
69382;DHT22;56560;50.692;12.844;2023-04-28T00:37:46;5.60;64.50
69382;DHT22;56560;50.692;12.844;2023-04-28T00:40:12;5.70;64.80
69382;DHT22;56560;50.692;12.844;2023-04-28T00:42:38;5.70;65.80
69382;DHT22;56560;50.692;12.844;2023-04-28T00:45:04;5.70;64.90
69382;DHT22;56560;50.692;12.844;2023-04-28T00:47:34;5.80;65.60
69382;DHT22;56560;50.692;12.844;2023-04-28T00:50:01;5.80;66.90
69382;DHT22;56560;50.692;12.844;2023-04-28T00:52:27;5.90;65.70
69382;DHT22;56560;50.692;12.844;2023-04-28T00:54:54;5.90;65.50
69382;DHT22;56560;50.692;12.844;2023-04-28T00:57:21;5.90;65.40
69382;DHT22;56560;50.692;12.844;2023-04-28T00:59:47;5.90;66.10
69382;DHT22;56560;50.692;12.844;2023-04-28T01:02:13;5.90;65.80
69382;DHT22;56560;50.692;12.844;2023-04-28T01:04:43;5.90;66.20
69382;DHT22;56560;50.692;12.844;2023-04-28T01:07:09;5.90;66.80
69382;DHT22;56560;50.692;12.844;2023-04-28T01:09:35;5.90;67.50
69382;DHT22;56560;50.692;12.844;2023-04-28T01:12:00;5.90;68.10
69382;DHT22;56560;50.692;12.844;2023-04-28T01:14:26;5.90;67.10
69382;DHT22;56560;50.692;12.844;2023-04-28T01:16:52;5.90;67.20
69382;DHT22;56560;50.692;12.844;2023-04-28T01:19:22;5.90;67.70
69382;DHT22;56560;50.692;12.844;2023-04-28T01:21:51;5.90;68.50
69382;DHT22;56560;50.692;12.844;2023-04-28T01:24:17;5.90;68.60
69382;DHT22;56560;50.692;12.844;2023-04-28T01:26:43;5.90;68.40
69382;DHT22;56560;50.692;12.844;2023-04-28T01:29:09;5.90;67.90
69382;DHT22;56560;50.692;12.844;2023-04-28T01:31:35;6.00;67.70
69382;DHT22;56560;50.692;12.844;2023-04-28T01:34:01;6.00;67.30
69382;DHT22;56560;50.692;12.844;2023-04-28T01:36:26;6.00;67.20
69382;DHT22;56560;50.692;12.844;2023-04-28T01:38:53;6.00;67.40
69382;DHT22;56560;50.692;12.844;2023-04-28T01:41:19;6.00;68.40
69382;DHT22;56560;50.692;12.844;2023-04-28T01:43:45;6.00;67.90
69382;DHT22;56560;50.692;12.844;2023-04-28T01:46:10;5.90;67.80
69382;DHT22;56560;50.692;12.844;2023-04-28T01:48:36;5.90;69.20
69382;DHT22;56560;50.692;12.844;2023-04-28T01:51:02;5.90;68.70
69382;DHT22;56560;50.692;12.844;2023-04-28T01:53:27;5.90;68.70
69382;DHT22;56560;50.692;12.844;2023-04-28T01:55:53;5.90;69.80
69382;DHT22;56560;50.692;12.844;2023-04-28T01:58:19;5.90;69.90
69382;DHT22;56560;50.692;12.844;2023-04-28T02:00:46;5.80;70.70
69382;DHT22;56560;50.692;12.844;2023-04-28T02:03:11;5.80;71.60
69382;DHT22;56560;50.692;12.844;2023-04-28T02:05:37;5.80;69.80
69382;DHT22;56560;50.692;12.844;2023-04-28T02:08:03;5.80;70.70
69382;DHT22;56560;50.692;12.844;2023-04-28T02:10:29;5.90;69.70
69382;DHT22;56560;50.692;12.844;2023-04-28T02:12:54;6.00;69.80
69382;DHT22;56560;50.692;12.844;2023-04-28T02:15:20;6.00;70.20
69382;DHT22;56560;50.692;12.844;2023-04-28T02:17:46;6.10;69.50
69382;DHT22;56560;50.692;12.844;2023-04-28T02:20:12;6.10;69.50
69382;DHT22;56560;50.692;12.844;2023-04-28T02:22:39;6.20;69.20
69382;DHT22;56560;50.692;12.844;2023-04-28T02:25:05;6.20;69.10
69382;DHT22;56560;50.692;12.844;2023-04-28T02:27:31;6.30;68.90
69382;DHT22;56560;50.692;12.844;2023-04-28T02:29:57;6.30;69.40
69382;DHT22;56560;50.692;12.844;2023-04-28T02:32:23;6.30;69.20
69382;DHT22;56560;50.692;12.844;2023-04-28T02:34:53;6.30;69.30
69382;DHT22;56560;50.692;12.844;2023-04-28T02:37:19;6.30;70.80
69382;DHT22;56560;50.692;12.844;2023-04-28T02:39:45;6.30;69.70
69382;DHT22;56560;50.692;12.844;2023-04-28T02:42:10;6.30;69.60
69382;DHT22;56560;50.692;12.844;2023-04-28T02:44:36;6.30;70.00
69382;DHT22;56560;50.692;12.844;2023-04-28T02:47:02;6.40;69.50
69382;DHT22;56560;50.692;12.844;2023-04-28T02:49:27;6.40;69.80
69382;DHT22;56560;50.692;12.844;2023-04-28T02:51:53;6.40;70.30
69382;DHT22;56560;50.692;12.844;2023-04-28T02:54:18;6.50;70.30
69382;DHT22;56560;50.692;12.844;2023-04-28T02:56:52;6.50;70.40
69382;DHT22;56560;50.692;12.844;2023-04-28T02:59:19;6.60;70.00
69382;DHT22;56560;50.692;12.844;2023-04-28T03:01:45;6.60;69.00
69382;DHT22;56560;50.692;12.844;2023-04-28T03:04:10;6.60;68.90
69382;DHT22;56560;50.692;12.844;2023-04-28T03:06:36;6.60;68.50
69382;DHT22;56560;50.692;12.844;2023-04-28T03:09:01;6.60;69.20
69382;DHT22;56560;50.692;12.844;2023-04-28T03:11:28;6.60;70.80
69382;DHT22;56560;50.692;12.844;2023-04-28T03:13:54;6.60;70.00
69382;DHT22;56560;50.692;12.844;2023-04-28T03:16:19;6.60;68.50
69382;DHT22;56560;50.692;12.844;2023-04-28T03:18:45;6.70;67.90
69382;DHT22;56560;50.692;12.844;2023-04-28T03:21:11;6.70;68.10
69382;DHT22;56560;50.692;12.844;2023-04-28T03:23:37;6.70;69.00
69382;DHT22;56560;50.692;12.844;2023-04-28T03:26:02;6.70;70.30
69382;DHT22;56560;50.692;12.844;2023-04-28T03:28:28;6.80;70.30
69382;DHT22;56560;50.692;12.844;2023-04-28T03:30:54;6.80;70.50
69382;DHT22;56560;50.692;12.844;2023-04-28T03:33:20;6.80;70.10
69382;DHT22;56560;50.692;12.844;2023-04-28T03:35:45;6.80;70.20
69382;DHT22;56560;50.692;12.844;2023-04-28T03:38:11;6.70;70.60
69382;DHT22;56560;50.692;12.844;2023-04-28T03:40:37;6.80;70.00
69382;DHT22;56560;50.692;12.844;2023-04-28T03:43:02;6.80;70.00
69382;DHT22;56560;50.692;12.844;2023-04-28T03:45:28;6.80;70.20
69382;DHT22;56560;50.692;12.844;2023-04-28T03:47:54;6.80;70.40
69382;DHT22;56560;50.692;12.844;2023-04-28T03:50:19;6.80;70.50
69382;DHT22;56560;50.692;12.844;2023-04-28T03:52:45;6.80;70.20
69382;DHT22;56560;50.692;12.844;2023-04-28T03:55:11;6.80;70.30
69382;DHT22;56560;50.692;12.844;2023-04-28T03:57:36;6.90;70.50
69382;DHT22;56560;50.692;12.844;2023-04-28T04:00:02;6.90;71.20
69382;DHT22;56560;50.692;12.844;2023-04-28T04:02:28;7.00;70.30
69382;DHT22;56560;50.692;12.844;2023-04-28T04:04:54;6.90;70.50
69382;DHT22;56560;50.692;12.844;2023-04-28T04:07:21;6.90;70.80
69382;DHT22;56560;50.692;12.844;2023-04-28T04:09:46;6.90;71.00
69382;DHT22;56560;50.692;12.844;2023-04-28T04:12:12;6.80;71.60
69382;DHT22;56560;50.692;12.844;2023-04-28T04:14:38;6.80;71.60
69382;DHT22;56560;50.692;12.844;2023-04-28T04:17:03;6.80;71.10
69382;DHT22;56560;50.692;12.844;2023-04-28T04:19:29;6.80;71.00
69382;DHT22;56560;50.692;12.844;2023-04-28T04:21:55;6.80;71.50
69382;DHT22;56560;50.692;12.844;2023-04-28T04:24:20;6.80;71.40
69382;DHT22;56560;50.692;12.844;2023-04-28T04:26:46;6.80;71.30
69382;DHT22;56560;50.692;12.844;2023-04-28T04:29:12;6.80;72.20
69382;DHT22;56560;50.692;12.844;2023-04-28T04:31:37;6.80;72.10
69382;DHT22;56560;50.692;12.844;2023-04-28T04:34:03;6.70;72.80
69382;DHT22;56560;50.692;12.844;2023-04-28T04:36:29;6.70;73.00
69382;DHT22;56560;50.692;12.844;2023-04-28T04:38:56;6.70;72.70
69382;DHT22;56560;50.692;12.844;2023-04-28T04:41:21;6.70;72.70
69382;DHT22;56560;50.692;12.844;2023-04-28T04:43:47;6.90;71.80
69382;DHT22;56560;50.692;12.844;2023-04-28T04:46:13;7.00;72.10
69382;DHT22;56560;50.692;12.844;2023-04-28T04:48:39;7.20;71.30
69382;DHT22;56560;50.692;12.844;2023-04-28T04:51:04;7.40;71.10
69382;DHT22;56560;50.692;12.844;2023-04-28T04:53:34;7.60;70.50
69382;DHT22;56560;50.692;12.844;2023-04-28T04:56:02;7.70;69.80
69382;DHT22;56560;50.692;12.844;2023-04-28T04:58:29;7.80;69.40
69382;DHT22;56560;50.692;12.844;2023-04-28T05:00:55;8.00;69.60
69382;DHT22;56560;50.692;12.844;2023-04-28T05:03:20;8.20;69.80
69382;DHT22;56560;50.692;12.844;2023-04-28T05:05:46;8.30;68.50
69382;DHT22;56560;50.692;12.844;2023-04-28T05:08:13;8.50;68.40
69382;DHT22;56560;50.692;12.844;2023-04-28T05:10:39;8.70;67.40
69382;DHT22;56560;50.692;12.844;2023-04-28T05:13:04;8.90;66.20
69382;DHT22;56560;50.692;12.844;2023-04-28T05:15:30;9.10;67.00
69382;DHT22;56560;50.692;12.844;2023-04-28T05:17:56;9.30;66.30
69382;DHT22;56560;50.692;12.844;2023-04-28T05:20:22;9.40;66.00
69382;DHT22;56560;50.692;12.844;2023-04-28T05:22:48;9.50;65.20
69382;DHT22;56560;50.692;12.844;2023-04-28T05:25:17;9.50;65.10
69382;DHT22;56560;50.692;12.844;2023-04-28T05:27:42;9.50;65.40
69382;DHT22;56560;50.692;12.844;2023-04-28T05:30:08;9.60;65.30
69382;DHT22;56560;50.692;12.844;2023-04-28T05:32:36;9.70;65.90
69382;DHT22;56560;50.692;12.844;2023-04-28T05:35:02;9.80;65.70
69382;DHT22;56560;50.692;12.844;2023-04-28T05:37:28;9.90;65.40
69382;DHT22;56560;50.692;12.844;2023-04-28T05:39:54;10.10;65.30
69382;DHT22;56560;50.692;12.844;2023-04-28T05:42:20;10.20;64.50
69382;DHT22;56560;50.692;12.844;2023-04-28T05:44:45;10.30;63.50
69382;DHT22;56560;50.692;12.844;2023-04-28T05:47:11;10.40;63.60
69382;DHT22;56560;50.692;12.844;2023-04-28T05:49:37;10.50;61.80
69382;DHT22;56560;50.692;12.844;2023-04-28T05:52:03;10.50;61.00
69382;DHT22;56560;50.692;12.844;2023-04-28T05:54:29;10.70;60.20
69382;DHT22;56560;50.692;12.844;2023-04-28T05:56:54;10.90;59.70
69382;DHT22;56560;50.692;12.844;2023-04-28T05:59:20;11.00;58.80
69382;DHT22;56560;50.692;12.844;2023-04-28T06:01:46;11.20;57.60
69382;DHT22;56560;50.692;12.844;2023-04-28T06:04:11;11.40;57.40
69382;DHT22;56560;50.692;12.844;2023-04-28T06:06:37;11.70;56.00
69382;DHT22;56560;50.692;12.844;2023-04-28T06:09:03;12.00;55.00
69382;DHT22;56560;50.692;12.844;2023-04-28T06:11:28;12.30;54.60
69382;DHT22;56560;50.692;12.844;2023-04-28T06:13:54;12.40;52.90
69382;DHT22;56560;50.692;12.844;2023-04-28T06:16:20;12.60;52.60
69382;DHT22;56560;50.692;12.844;2023-04-28T06:18:47;12.80;51.70
69382;DHT22;56560;50.692;12.844;2023-04-28T06:21:15;13.00;51.40
69382;DHT22;56560;50.692;12.844;2023-04-28T06:23:41;13.10;51.40
69382;DHT22;56560;50.692;12.844;2023-04-28T06:26:07;13.10;50.20
69382;DHT22;56560;50.692;12.844;2023-04-28T06:28:33;13.20;50.90
69382;DHT22;56560;50.692;12.844;2023-04-28T06:30:59;13.20;50.40
69382;DHT22;56560;50.692;12.844;2023-04-28T06:33:25;13.20;50.10
69382;DHT22;56560;50.692;12.844;2023-04-28T06:35:51;13.30;49.90
69382;DHT22;56560;50.692;12.844;2023-04-28T06:38:17;13.20;49.50
69382;DHT22;56560;50.692;12.844;2023-04-28T06:40:42;13.40;50.50
69382;DHT22;56560;50.692;12.844;2023-04-28T06:43:10;13.40;48.70
69382;DHT22;56560;50.692;12.844;2023-04-28T06:45:36;13.50;49.30
69382;DHT22;56560;50.692;12.844;2023-04-28T06:48:02;13.60;48.70
69382;DHT22;56560;50.692;12.844;2023-04-28T06:50:27;13.70;48.40
69382;DHT22;56560;50.692;12.844;2023-04-28T06:52:53;13.70;49.00
69382;DHT22;56560;50.692;12.844;2023-04-28T06:55:19;13.90;48.70
69382;DHT22;56560;50.692;12.844;2023-04-28T06:57:45;13.90;47.70
69382;DHT22;56560;50.692;12.844;2023-04-28T07:00:12;13.80;47.70
69382;DHT22;56560;50.692;12.844;2023-04-28T07:02:38;13.60;48.20
69382;DHT22;56560;50.692;12.844;2023-04-28T07:05:04;13.70;48.10
69382;DHT22;56560;50.692;12.844;2023-04-28T07:07:30;13.70;48.00
69382;DHT22;56560;50.692;12.844;2023-04-28T07:09:55;13.70;48.30
69382;DHT22;56560;50.692;12.844;2023-04-28T07:12:21;13.70;48.30
69382;DHT22;56560;50.692;12.844;2023-04-28T07:14:47;13.70;48.40
69382;DHT22;56560;50.692;12.844;2023-04-28T07:17:13;13.70;48.50
69382;DHT22;56560;50.692;12.844;2023-04-28T07:19:39;13.70;48.90
69382;DHT22;56560;50.692;12.844;2023-04-28T07:22:05;13.80;48.50
69382;DHT22;56560;50.692;12.844;2023-04-28T07:24:30;13.90;48.30
69382;DHT22;56560;50.692;12.844;2023-04-28T07:26:56;14.00;49.40
69382;DHT22;56560;50.692;12.844;2023-04-28T07:29:23;13.90;49.60
69382;DHT22;56560;50.692;12.844;2023-04-28T07:31:49;13.80;50.90
69382;DHT22;56560;50.692;12.844;2023-04-28T07:34:15;13.80;49.40
69382;DHT22;56560;50.692;12.844;2023-04-28T07:36:40;13.80;51.20
69382;DHT22;56560;50.692;12.844;2023-04-28T07:39:06;13.90;50.60
69382;DHT22;56560;50.692;12.844;2023-04-28T07:41:38;14.10;50.10
69382;DHT22;56560;50.692;12.844;2023-04-28T07:44:04;14.20;50.30
69382;DHT22;56560;50.692;12.844;2023-04-28T07:46:31;14.30;49.90
69382;DHT22;56560;50.692;12.844;2023-04-28T07:48:56;14.20;49.30
69382;DHT22;56560;50.692;12.844;2023-04-28T07:51:23;14.20;50.20
69382;DHT22;56560;50.692;12.844;2023-04-28T07:53:48;14.20;51.30
69382;DHT22;56560;50.692;12.844;2023-04-28T07:56:14;14.20;50.80
69382;DHT22;56560;50.692;12.844;2023-04-28T07:58:40;14.20;51.30
69382;DHT22;56560;50.692;12.844;2023-04-28T08:01:06;14.20;51.90
69382;DHT22;56560;50.692;12.844;2023-04-28T08:03:31;14.20;51.30
69382;DHT22;56560;50.692;12.844;2023-04-28T08:05:57;14.30;51.70
69382;DHT22;56560;50.692;12.844;2023-04-28T08:08:23;14.50;51.20
69382;DHT22;56560;50.692;12.844;2023-04-28T08:10:49;14.70;49.80
69382;DHT22;56560;50.692;12.844;2023-04-28T08:13:15;15.00;50.40
69382;DHT22;56560;50.692;12.844;2023-04-28T08:15:41;14.90;49.90
69382;DHT22;56560;50.692;12.844;2023-04-28T08:18:07;14.90;50.50
69382;DHT22;56560;50.692;12.844;2023-04-28T08:20:33;14.90;49.30
69382;DHT22;56560;50.692;12.844;2023-04-28T08:22:59;14.80;48.80
69382;DHT22;56560;50.692;12.844;2023-04-28T08:25:24;14.70;49.60
69382;DHT22;56560;50.692;12.844;2023-04-28T08:27:50;14.70;49.50
69382;DHT22;56560;50.692;12.844;2023-04-28T08:30:16;14.50;50.10
69382;DHT22;56560;50.692;12.844;2023-04-28T08:32:42;14.40;50.00
69382;DHT22;56560;50.692;12.844;2023-04-28T08:35:08;14.40;50.80
69382;DHT22;56560;50.692;12.844;2023-04-28T08:37:34;14.70;50.40
69382;DHT22;56560;50.692;12.844;2023-04-28T08:40:00;14.70;50.00
69382;DHT22;56560;50.692;12.844;2023-04-28T08:42:34;14.90;50.30
69382;DHT22;56560;50.692;12.844;2023-04-28T08:45:00;15.30;50.40
69382;DHT22;56560;50.692;12.844;2023-04-28T08:47:33;15.40;48.90
69382;DHT22;56560;50.692;12.844;2023-04-28T08:50:07;15.40;48.80
69382;DHT22;56560;50.692;12.844;2023-04-28T08:52:33;15.50;48.50
69382;DHT22;56560;50.692;12.844;2023-04-28T08:55:05;15.60;48.30
69382;DHT22;56560;50.692;12.844;2023-04-28T08:57:43;15.70;48.50
69382;DHT22;56560;50.692;12.844;2023-04-28T09:00:10;15.60;48.40
69382;DHT22;56560;50.692;12.844;2023-04-28T09:02:36;15.50;48.90
69382;DHT22;56560;50.692;12.844;2023-04-28T09:05:12;15.20;48.70
69382;DHT22;56560;50.692;12.844;2023-04-28T09:07:39;14.80;50.50
69382;DHT22;56560;50.692;12.844;2023-04-28T09:12:46;14.30;52.10
69382;DHT22;56560;50.692;12.844;2023-04-28T09:15:27;14.40;52.00
69382;DHT22;56560;50.692;12.844;2023-04-28T09:17:53;14.40;52.20
69382;DHT22;56560;50.692;12.844;2023-04-28T09:20:23;14.30;52.50
69382;DHT22;56560;50.692;12.844;2023-04-28T09:22:49;14.20;53.00
69382;DHT22;56560;50.692;12.844;2023-04-28T09:25:16;14.30;52.40
69382;DHT22;56560;50.692;12.844;2023-04-28T09:27:42;14.10;53.00
69382;DHT22;56560;50.692;12.844;2023-04-28T09:30:08;14.10;52.90
69382;DHT22;56560;50.692;12.844;2023-04-28T09:32:34;14.20;52.70
69382;DHT22;56560;50.692;12.844;2023-04-28T09:35:01;14.10;54.30
69382;DHT22;56560;50.692;12.844;2023-04-28T09:37:29;14.20;54.60
69382;DHT22;56560;50.692;12.844;2023-04-28T09:39:56;14.40;54.40
69382;DHT22;56560;50.692;12.844;2023-04-28T09:42:41;14.20;55.50
69382;DHT22;56560;50.692;12.844;2023-04-28T09:45:09;14.20;56.60
69382;DHT22;56560;50.692;12.844;2023-04-28T09:47:46;14.00;56.50
69382;DHT22;56560;50.692;12.844;2023-04-28T09:50:14;14.10;57.40
69382;DHT22;56560;50.692;12.844;2023-04-28T09:52:42;14.10;58.80
69382;DHT22;56560;50.692;12.844;2023-04-28T09:55:10;14.20;57.50
69382;DHT22;56560;50.692;12.844;2023-04-28T09:57:38;14.10;57.30
69382;DHT22;56560;50.692;12.844;2023-04-28T10:00:06;13.80;57.50
69382;DHT22;56560;50.692;12.844;2023-04-28T10:02:34;13.40;59.50
69382;DHT22;56560;50.692;12.844;2023-04-28T10:05:01;13.10;61.00
69382;DHT22;56560;50.692;12.844;2023-04-28T10:07:27;12.70;61.70
69382;DHT22;56560;50.692;12.844;2023-04-28T10:09:55;12.40;63.90
69382;DHT22;56560;50.692;12.844;2023-04-28T10:12:22;12.30;65.50
69382;DHT22;56560;50.692;12.844;2023-04-28T10:14:49;12.30;65.60
69382;DHT22;56560;50.692;12.844;2023-04-28T10:17:19;12.20;66.60
69382;DHT22;56560;50.692;12.844;2023-04-28T10:19:48;12.20;66.10
69382;DHT22;56560;50.692;12.844;2023-04-28T10:27:41;12.40;67.40
69382;DHT22;56560;50.692;12.844;2023-04-28T10:32:37;12.60;66.60
69382;DHT22;56560;50.692;12.844;2023-04-28T10:40:44;12.70;68.30
69382;DHT22;56560;50.692;12.844;2023-04-28T10:43:32;12.70;65.00
69382;DHT22;56560;50.692;12.844;2023-04-28T10:56:15;12.70;68.50
69382;DHT22;56560;50.692;12.844;2023-04-28T10:58:44;13.00;69.80
69382;DHT22;56560;50.692;12.844;2023-04-28T11:06:17;13.70;66.80
69382;DHT22;56560;50.692;12.844;2023-04-28T11:08:49;13.90;68.40
69382;DHT22;56560;50.692;12.844;2023-04-28T11:11:19;14.30;67.00
69382;DHT22;56560;50.692;12.844;2023-04-28T11:13:46;14.60;65.70
69382;DHT22;56560;50.692;12.844;2023-04-28T11:16:17;14.50;64.90
69382;DHT22;56560;50.692;12.844;2023-04-28T11:18:50;14.30;64.50
69382;DHT22;56560;50.692;12.844;2023-04-28T11:21:17;14.20;64.30
69382;DHT22;56560;50.692;12.844;2023-04-28T11:23:43;14.10;64.60
69382;DHT22;56560;50.692;12.844;2023-04-28T11:26:09;14.00;66.10
69382;DHT22;56560;50.692;12.844;2023-04-28T11:28:35;13.90;65.50
69382;DHT22;56560;50.692;12.844;2023-04-28T11:31:15;13.80;66.60
69382;DHT22;56560;50.692;12.844;2023-04-28T11:34:04;13.70;65.40
69382;DHT22;56560;50.692;12.844;2023-04-28T11:36:31;13.30;65.30
69382;DHT22;56560;50.692;12.844;2023-04-28T11:38:58;13.10;67.20
69382;DHT22;56560;50.692;12.844;2023-04-28T11:41:25;13.10;66.90
69382;DHT22;56560;50.692;12.844;2023-04-28T11:43:51;13.00;66.60
69382;DHT22;56560;50.692;12.844;2023-04-28T11:46:19;12.80;67.90
69382;DHT22;56560;50.692;12.844;2023-04-28T11:48:45;13.00;67.70
69382;DHT22;56560;50.692;12.844;2023-04-28T11:51:33;13.10;68.00
69382;DHT22;56560;50.692;12.844;2023-04-28T11:53:59;13.10;67.70
69382;DHT22;56560;50.692;12.844;2023-04-28T11:56:26;13.10;68.40
69382;DHT22;56560;50.692;12.844;2023-04-28T11:59:08;13.10;67.20
69382;DHT22;56560;50.692;12.844;2023-04-28T12:01:46;13.20;68.40
69382;DHT22;56560;50.692;12.844;2023-04-28T12:04:12;13.50;68.60
69382;DHT22;56560;50.692;12.844;2023-04-28T12:06:39;13.60;67.80
69382;DHT22;56560;50.692;12.844;2023-04-28T12:09:16;13.80;67.00
69382;DHT22;56560;50.692;12.844;2023-04-28T12:11:55;14.10;67.30
69382;DHT22;56560;50.692;12.844;2023-04-28T12:14:22;14.60;66.60
69382;DHT22;56560;50.692;12.844;2023-04-28T12:16:49;15.20;64.50
69382;DHT22;56560;50.692;12.844;2023-04-28T12:19:16;15.40;63.00
69382;DHT22;56560;50.692;12.844;2023-04-28T12:21:42;15.70;61.10
69382;DHT22;56560;50.692;12.844;2023-04-28T12:24:19;16.10;61.20
69382;DHT22;56560;50.692;12.844;2023-04-28T12:26:46;16.40;58.60
69382;DHT22;56560;50.692;12.844;2023-04-28T12:29:39;16.60;58.90
69382;DHT22;56560;50.692;12.844;2023-04-28T12:32:06;16.50;57.80
69382;DHT22;56560;50.692;12.844;2023-04-28T12:34:33;16.80;59.90
69382;DHT22;56560;50.692;12.844;2023-04-28T12:37:00;17.40;59.60
69382;DHT22;56560;50.692;12.844;2023-04-28T12:39:27;17.60;54.70
69382;DHT22;56560;50.692;12.844;2023-04-28T12:41:53;17.70;53.30
69382;DHT22;56560;50.692;12.844;2023-04-28T12:44:20;17.50;54.70
69382;DHT22;56560;50.692;12.844;2023-04-28T12:46:47;17.20;55.00
69382;DHT22;56560;50.692;12.844;2023-04-28T12:49:13;16.70;56.30
69382;DHT22;56560;50.692;12.844;2023-04-28T12:51:40;16.40;57.30
69382;DHT22;56560;50.692;12.844;2023-04-28T12:54:06;15.90;58.40
69382;DHT22;56560;50.692;12.844;2023-04-28T12:56:32;15.60;59.50
69382;DHT22;56560;50.692;12.844;2023-04-28T12:58:59;15.40;60.70
69382;DHT22;56560;50.692;12.844;2023-04-28T13:01:28;15.50;59.90
69382;DHT22;56560;50.692;12.844;2023-04-28T13:03:54;15.50;60.40
69382;DHT22;56560;50.692;12.844;2023-04-28T13:06:20;15.30;59.90
69382;DHT22;56560;50.692;12.844;2023-04-28T13:08:46;15.10;61.10
69382;DHT22;56560;50.692;12.844;2023-04-28T13:11:15;14.90;61.10
69382;DHT22;56560;50.692;12.844;2023-04-28T13:13:41;14.90;62.10
69382;DHT22;56560;50.692;12.844;2023-04-28T13:16:09;15.10;61.90
69382;DHT22;56560;50.692;12.844;2023-04-28T13:18:36;15.10;60.70
69382;DHT22;56560;50.692;12.844;2023-04-28T13:21:06;14.90;60.20
69382;DHT22;56560;50.692;12.844;2023-04-28T13:23:33;14.80;60.80
69382;DHT22;56560;50.692;12.844;2023-04-28T13:25:59;15.00;61.30
69382;DHT22;56560;50.692;12.844;2023-04-28T13:28:26;15.10;59.30
69382;DHT22;56560;50.692;12.844;2023-04-28T13:30:54;14.80;59.60
69382;DHT22;56560;50.692;12.844;2023-04-28T13:33:23;14.80;61.50
69382;DHT22;56560;50.692;12.844;2023-04-28T13:35:59;14.80;61.00
69382;DHT22;56560;50.692;12.844;2023-04-28T13:38:28;14.70;61.30
69382;DHT22;56560;50.692;12.844;2023-04-28T13:41:07;14.70;61.50
69382;DHT22;56560;50.692;12.844;2023-04-28T13:43:42;14.70;60.90
69382;DHT22;56560;50.692;12.844;2023-04-28T13:46:09;14.50;61.50
69382;DHT22;56560;50.692;12.844;2023-04-28T13:48:35;14.30;62.50
69382;DHT22;56560;50.692;12.844;2023-04-28T13:51:04;14.40;62.60
69382;DHT22;56560;50.692;12.844;2023-04-28T13:53:31;14.50;62.50
69382;DHT22;56560;50.692;12.844;2023-04-28T13:55:57;14.60;62.60
69382;DHT22;56560;50.692;12.844;2023-04-28T13:58:27;14.60;62.30
69382;DHT22;56560;50.692;12.844;2023-04-28T14:00:53;14.60;62.20
69382;DHT22;56560;50.692;12.844;2023-04-28T14:03:20;14.80;62.20
69382;DHT22;56560;50.692;12.844;2023-04-28T14:05:56;14.70;61.50
69382;DHT22;56560;50.692;12.844;2023-04-28T14:08:23;14.60;62.30
69382;DHT22;56560;50.692;12.844;2023-04-28T14:10:49;14.60;62.10
69382;DHT22;56560;50.692;12.844;2023-04-28T14:13:16;14.70;62.40
69382;DHT22;56560;50.692;12.844;2023-04-28T14:15:42;14.70;62.20
69382;DHT22;56560;50.692;12.844;2023-04-28T14:18:08;14.80;62.10
69382;DHT22;56560;50.692;12.844;2023-04-28T14:20:34;14.80;61.80
69382;DHT22;56560;50.692;12.844;2023-04-28T14:23:00;15.00;62.30
69382;DHT22;56560;50.692;12.844;2023-04-28T14:25:26;15.00;61.30
69382;DHT22;56560;50.692;12.844;2023-04-28T14:27:55;15.00;61.40
69382;DHT22;56560;50.692;12.844;2023-04-28T14:30:21;15.00;61.10
69382;DHT22;56560;50.692;12.844;2023-04-28T14:32:47;15.00;61.70
69382;DHT22;56560;50.692;12.844;2023-04-28T14:35:14;15.10;61.20
69382;DHT22;56560;50.692;12.844;2023-04-28T14:37:42;15.20;60.70
69382;DHT22;56560;50.692;12.844;2023-04-28T14:40:08;15.30;60.80
69382;DHT22;56560;50.692;12.844;2023-04-28T14:42:35;15.50;60.60
69382;DHT22;56560;50.692;12.844;2023-04-28T14:45:03;15.60;60.60
69382;DHT22;56560;50.692;12.844;2023-04-28T14:47:29;15.90;60.00
69382;DHT22;56560;50.692;12.844;2023-04-28T14:49:55;15.80;59.00
69382;DHT22;56560;50.692;12.844;2023-04-28T14:52:22;15.80;59.40
69382;DHT22;56560;50.692;12.844;2023-04-28T14:54:50;15.80;59.40
69382;DHT22;56560;50.692;12.844;2023-04-28T14:57:16;15.80;59.10
69382;DHT22;56560;50.692;12.844;2023-04-28T14:59:42;15.70;60.00
69382;DHT22;56560;50.692;12.844;2023-04-28T15:02:08;15.60;60.20
69382;DHT22;56560;50.692;12.844;2023-04-28T15:04:34;15.20;60.20
69382;DHT22;56560;50.692;12.844;2023-04-28T15:07:00;15.00;61.20
69382;DHT22;56560;50.692;12.844;2023-04-28T15:09:26;14.90;61.60
69382;DHT22;56560;50.692;12.844;2023-04-28T15:11:52;14.80;62.40
69382;DHT22;56560;50.692;12.844;2023-04-28T15:14:18;14.70;63.00
69382;DHT22;56560;50.692;12.844;2023-04-28T15:16:44;14.60;62.90
69382;DHT22;56560;50.692;12.844;2023-04-28T15:19:11;14.40;63.10
69382;DHT22;56560;50.692;12.844;2023-04-28T15:21:38;14.30;64.30
69382;DHT22;56560;50.692;12.844;2023-04-28T15:24:04;14.20;65.00
69382;DHT22;56560;50.692;12.844;2023-04-28T15:26:30;14.30;64.20
69382;DHT22;56560;50.692;12.844;2023-04-28T15:28:55;14.20;64.90
69382;DHT22;56560;50.692;12.844;2023-04-28T15:31:21;14.20;64.90
69382;DHT22;56560;50.692;12.844;2023-04-28T15:33:50;14.20;64.80
69382;DHT22;56560;50.692;12.844;2023-04-28T15:36:16;14.10;65.10
69382;DHT22;56560;50.692;12.844;2023-04-28T15:38:44;14.00;65.10
69382;DHT22;56560;50.692;12.844;2023-04-28T15:41:15;14.00;65.60
69382;DHT22;56560;50.692;12.844;2023-04-28T15:43:41;13.80;65.60
69382;DHT22;56560;50.692;12.844;2023-04-28T15:46:08;13.70;65.90
69382;DHT22;56560;50.692;12.844;2023-04-28T15:48:36;13.50;66.80
69382;DHT22;56560;50.692;12.844;2023-04-28T15:51:03;13.30;67.60
69382;DHT22;56560;50.692;12.844;2023-04-28T15:53:29;13.30;67.60